createdAt,value
2019-06-07T00:00:48.419Z,17.30
2019-06-07T00:03:27.605Z,17.30
2019-06-07T00:05:45.556Z,17.30
2019-06-07T00:08:22.504Z,17.20
2019-06-07T00:10:42.826Z,17.30
2019-06-07T00:13:12.888Z,17.20
2019-06-07T00:15:40.011Z,17.10
2019-06-07T00:18:11.136Z,17.10
2019-06-07T00:20:37.186Z,17.10
2019-06-07T00:23:05.766Z,17.10
2019-06-07T00:25:34.300Z,17.10
2019-06-07T00:28:02.846Z,17.10
2019-06-07T00:30:50.160Z,17.00
2019-06-07T00:33:00.407Z,17.00
2019-06-07T00:35:29.039Z,17.00
2019-06-07T00:37:57.754Z,17.00
2019-06-07T00:40:31.819Z,16.90
2019-06-07T00:42:55.127Z,16.90
2019-06-07T00:45:24.793Z,16.90
2019-06-07T00:47:52.242Z,16.80
2019-06-07T00:50:24.140Z,16.80
2019-06-07T00:55:20.631Z,16.60
2019-06-07T00:57:47.247Z,16.60
2019-06-07T01:00:18.347Z,16.60
2019-06-07T01:02:44.925Z,16.60
2019-06-07T01:05:15.945Z,16.60
2019-06-07T01:07:42.162Z,16.50
2019-06-07T01:10:13.670Z,16.50
2019-06-07T01:12:40.559Z,16.50
2019-06-07T01:15:09.171Z,16.40
2019-06-07T01:17:50.135Z,16.40
2019-06-07T01:20:06.752Z,16.40
2019-06-07T01:22:35.374Z,16.50
2019-06-07T01:25:04.011Z,16.50
2019-06-07T01:27:32.575Z,16.50
2019-06-07T01:30:01.385Z,16.40
2019-06-07T01:32:31.833Z,16.40
2019-06-07T01:34:58.957Z,16.40
2019-06-07T01:37:28.460Z,16.40
2019-06-07T01:39:56.152Z,16.40
2019-06-07T01:42:28.858Z,16.40
2019-06-07T01:44:53.292Z,16.30
2019-06-07T01:47:25.540Z,16.40
2019-06-07T01:49:50.363Z,16.30
2019-06-07T01:52:19.546Z,16.30
2019-06-07T01:54:58.050Z,16.40
2019-06-07T01:57:36.592Z,16.30
2019-06-07T01:59:44.662Z,16.30
2019-06-07T02:02:13.195Z,16.30
2019-06-07T02:04:41.925Z,16.30
2019-06-07T02:07:10.790Z,16.30
2019-06-07T02:09:39.337Z,16.30
2019-06-07T02:12:25.092Z,16.30
2019-06-07T02:14:36.475Z,16.30
2019-06-07T02:17:05.222Z,16.30
2019-06-07T02:19:33.824Z,16.30
2019-06-07T02:22:02.500Z,16.30
2019-06-07T02:24:34.616Z,16.30
2019-06-07T02:26:59.586Z,16.40
2019-06-07T02:29:31.417Z,16.40
2019-06-07T02:31:56.866Z,16.50
2019-06-07T02:34:28.122Z,16.60
2019-06-07T02:36:54.089Z,16.70
2019-06-07T02:39:23.982Z,16.80
2019-06-07T02:41:51.222Z,16.90
2019-06-07T02:44:19.774Z,17.00
2019-06-07T02:46:49.972Z,17.10
2019-06-07T02:49:17.107Z,17.20
2019-06-07T02:51:45.683Z,17.30
2019-06-07T02:54:14.519Z,17.40
2019-06-07T02:56:56.789Z,17.50
2019-06-07T02:59:11.920Z,17.50
2019-06-07T03:01:42.559Z,17.50
2019-06-07T03:04:09.267Z,17.60
2019-06-07T03:06:43.249Z,17.60
2019-06-07T03:09:08.608Z,17.70
2019-06-07T03:11:38.940Z,17.70
2019-06-07T03:14:05.926Z,17.80
2019-06-07T03:16:39.154Z,17.80
2019-06-07T03:19:11.009Z,17.90
2019-06-07T03:21:42.380Z,17.90
2019-06-07T03:24:10.945Z,18.00
2019-06-07T03:27:31.420Z,18.10
2019-06-07T03:29:08.436Z,18.30
2019-06-07T03:31:41.713Z,18.30
2019-06-07T03:34:05.627Z,18.40
2019-06-07T03:36:35.466Z,18.60
2019-06-07T03:39:03.179Z,18.60
2019-06-07T03:41:38.629Z,18.70
2019-06-07T03:44:00.550Z,18.70
2019-06-07T03:46:30.118Z,18.80
2019-06-07T03:48:57.663Z,18.80
2019-06-07T03:51:27.386Z,18.80
2019-06-07T03:53:54.890Z,18.80
2019-06-07T03:56:23.415Z,18.80
2019-06-07T03:58:51.974Z,18.80
2019-06-07T04:01:20.707Z,18.90
2019-06-07T04:03:51.793Z,18.80
2019-06-07T04:06:17.884Z,18.80
2019-06-07T04:08:46.467Z,18.90
2019-06-07T04:11:15.194Z,18.90
2019-06-07T04:13:43.857Z,18.90
2019-06-07T04:16:12.515Z,18.90
2019-06-07T04:18:42.508Z,18.90
2019-06-07T04:21:09.782Z,18.90
2019-06-07T04:23:44.925Z,19.00
2019-06-07T04:26:07.183Z,19.00
2019-06-07T04:29:30.229Z,19.00
2019-06-07T04:31:04.374Z,19.10
2019-06-07T04:33:37.066Z,19.20
2019-06-07T04:36:01.726Z,19.20
2019-06-07T04:38:32.689Z,19.20
2019-06-07T04:40:59.378Z,19.40
2019-06-07T04:43:31.037Z,19.50
2019-06-07T04:45:56.650Z,19.60
2019-06-07T04:48:25.270Z,19.70
2019-06-07T04:50:53.891Z,19.70
2019-06-07T04:53:22.426Z,19.80
2019-06-07T04:55:50.975Z,19.80
2019-06-07T04:58:19.563Z,19.90
2019-06-07T05:00:54.129Z,20.00
2019-06-07T05:03:16.833Z,20.00
2019-06-07T05:05:45.358Z,20.00
2019-06-07T05:08:27.580Z,20.10
2019-06-07T05:10:43.887Z,20.20
2019-06-07T05:13:11.291Z,20.20
2019-06-07T05:15:42.040Z,20.20
2019-06-07T05:18:08.427Z,20.20
2019-06-07T05:20:38.546Z,20.30
2019-06-07T05:23:05.603Z,20.40
2019-06-07T05:25:36.468Z,20.40
2019-06-07T05:28:03.108Z,20.50
2019-06-07T05:31:01.929Z,20.50
2019-06-07T05:33:02.412Z,20.60
2019-06-07T05:35:31.223Z,20.60
2019-06-07T05:37:59.834Z,20.60
2019-06-07T05:40:34.933Z,20.60
2019-06-07T05:43:02.971Z,20.70
2019-06-07T05:45:37.643Z,20.70
2019-06-07T05:48:02.683Z,20.80
2019-06-07T05:50:42.619Z,20.90
2019-06-07T05:52:59.195Z,20.90
2019-06-07T05:55:27.933Z,21.00
2019-06-07T05:57:56.508Z,21.10
2019-06-07T06:00:25.223Z,21.20
2019-06-07T06:03:04.825Z,21.30
2019-06-07T06:05:33.689Z,21.30
2019-06-07T06:07:51.135Z,21.50
2019-06-07T06:10:19.618Z,21.50
2019-06-07T06:12:51.724Z,21.50
2019-06-07T06:15:16.850Z,21.60
2019-06-07T06:17:48.939Z,21.90
2019-06-07T06:20:14.247Z,22.20
2019-06-07T06:22:44.807Z,22.40
2019-06-07T06:30:09.478Z,22.30
2019-06-07T06:32:49.294Z,22.40
2019-06-07T06:35:07.055Z,22.50
2019-06-07T06:37:38.038Z,22.70
2019-06-07T06:40:05.510Z,22.80
2019-06-07T06:42:34.691Z,23.00
2019-06-07T06:45:12.631Z,23.00
2019-06-07T06:47:43.143Z,23.10
2019-06-07T06:50:09.838Z,23.20
2019-06-07T06:52:42.327Z,23.30
2019-06-07T06:55:07.184Z,23.30
2019-06-07T06:57:35.726Z,23.30
2019-06-07T07:00:05.299Z,23.50
2019-06-07T07:02:33.841Z,23.40
2019-06-07T07:05:02.475Z,23.50
2019-06-07T07:07:31.121Z,23.60
2019-06-07T07:10:03.155Z,23.80
2019-06-07T07:12:31.422Z,23.90
2019-06-07T07:15:00.073Z,24.20
2019-06-07T07:17:47.630Z,24.50
2019-06-07T07:19:57.209Z,24.70
2019-06-07T07:22:25.730Z,24.80
2019-06-07T07:24:54.949Z,25.10
2019-06-07T07:27:23.127Z,25.20
2019-06-07T07:30:10.187Z,25.50
2019-06-07T07:32:20.357Z,25.70
2019-06-07T07:34:51.785Z,25.70
2019-06-07T07:37:17.589Z,26.10
2019-06-07T07:39:48.597Z,26.60
2019-06-07T07:42:21.124Z,27.00
2019-06-07T07:44:45.024Z,27.30
2019-06-07T07:47:12.441Z,27.40
2019-06-07T07:49:41.041Z,27.70
2019-06-07T07:52:09.603Z,27.90
2019-06-07T07:54:38.172Z,28.30
2019-06-07T07:57:06.743Z,28.50
2019-06-07T07:59:42.233Z,28.60
2019-06-07T08:02:04.055Z,28.90
2019-06-07T08:05:12.750Z,29.40
2019-06-07T08:07:01.600Z,29.70
2019-06-07T08:09:30.204Z,29.70
2019-06-07T08:12:01.934Z,29.80
2019-06-07T08:14:27.283Z,29.90
2019-06-07T08:16:57.892Z,29.80
2019-06-07T08:19:24.374Z,29.70
2019-06-07T08:21:53.104Z,29.50
2019-06-07T08:24:21.493Z,29.80
2019-06-07T08:27:10.487Z,30.10
2019-06-07T08:29:18.763Z,29.80
2019-06-07T08:31:48.298Z,30.10
2019-06-07T08:34:15.914Z,30.10
2019-06-07T08:36:44.429Z,30.50
2019-06-07T08:39:13.111Z,30.90
2019-06-07T08:41:53.814Z,30.50
2019-06-07T08:44:23.379Z,30.00
2019-06-07T08:46:39.272Z,30.10
2019-06-07T08:49:07.943Z,30.20
2019-06-07T08:51:36.475Z,30.00
2019-06-07T08:54:21.489Z,29.50
2019-06-07T08:56:33.630Z,29.40
2019-06-07T08:59:10.731Z,29.60
2019-06-07T09:01:30.758Z,30.40
2019-06-07T09:04:02.615Z,30.80
2019-06-07T09:07:01.767Z,30.60
2019-06-07T09:09:00.276Z,30.20
2019-06-07T09:11:25.127Z,30.00
2019-06-07T09:13:54.481Z,30.50
2019-06-07T09:16:22.365Z,30.80
2019-06-07T09:18:50.947Z,30.80
2019-06-07T09:21:19.880Z,30.90
2019-06-07T09:23:48.430Z,30.90
2019-06-07T09:26:18.956Z,30.90
2019-06-07T09:28:45.667Z,31.20
2019-06-07T09:31:14.237Z,31.20
2019-06-07T09:33:42.792Z,31.40
2019-06-07T09:36:13.178Z,31.30
2019-06-07T09:38:39.973Z,31.40
2019-06-07T09:41:09.788Z,31.60
2019-06-07T09:46:12.940Z,31.70
2019-06-07T09:49:09.948Z,31.10
2019-06-07T09:51:09.689Z,30.50
2019-06-07T09:53:32.007Z,30.00
2019-06-07T09:56:03.573Z,29.70
2019-06-07T10:01:02.073Z,29.90
2019-06-07T10:03:26.539Z,30.20
2019-06-07T10:05:55.049Z,30.20
2019-06-07T10:09:42.295Z,29.70
2019-06-07T10:10:52.163Z,29.40
2019-06-07T10:13:20.710Z,29.80
2019-06-07T10:15:49.452Z,30.10
2019-06-07T10:18:18.015Z,30.10
2019-06-07T10:20:46.571Z,30.00
2019-06-07T10:23:15.182Z,30.00
2019-06-07T10:25:43.880Z,30.70
2019-06-07T10:28:12.280Z,30.80
2019-06-07T10:30:40.854Z,30.50
2019-06-07T10:33:10.472Z,30.20
2019-06-07T10:35:38.309Z,30.50
2019-06-07T10:38:06.940Z,30.60
2019-06-07T10:40:35.646Z,30.50
2019-06-07T10:43:05.053Z,30.80
2019-06-07T10:45:33.376Z,30.40
2019-06-07T10:48:03.450Z,29.30
2019-06-07T10:50:31.008Z,29.00
2019-06-07T10:52:59.544Z,29.20
2019-06-07T10:55:28.094Z,29.50
2019-06-07T10:57:56.629Z,28.80
2019-06-07T11:00:25.522Z,28.90
2019-06-07T11:02:55.197Z,29.80
2019-06-07T11:05:22.659Z,29.70
2019-06-07T11:07:51.668Z,29.70
2019-06-07T11:10:20.452Z,29.60
2019-06-07T11:12:48.719Z,29.60
2019-06-07T11:15:17.308Z,28.80
2019-06-07T11:17:45.827Z,28.90
2019-06-07T11:20:14.534Z,28.50
2019-06-07T11:22:43.027Z,28.00
2019-06-07T11:25:12.841Z,27.90
2019-06-07T11:27:40.287Z,27.90
2019-06-07T11:30:10.342Z,28.00
2019-06-07T11:32:37.485Z,28.00
2019-06-07T11:35:06.398Z,27.90
2019-06-07T11:37:34.783Z,27.90
2019-06-07T11:40:03.575Z,28.30
2019-06-07T11:42:32.255Z,28.40
2019-06-07T11:45:00.970Z,28.20
2019-06-07T11:47:35.527Z,28.40
2019-06-07T11:50:04.722Z,28.30
2019-06-07T11:52:33.462Z,28.60
2019-06-07T11:55:02.003Z,29.00
2019-06-07T11:57:30.531Z,28.40
2019-06-07T11:59:59.066Z,28.30
2019-06-07T12:02:27.603Z,28.60
2019-06-07T12:04:56.138Z,29.40
2019-06-07T12:07:24.664Z,29.40
2019-06-07T12:09:56.696Z,29.60
2019-06-07T12:12:21.782Z,29.30
2019-06-07T12:14:50.374Z,29.00
2019-06-07T12:17:19.592Z,28.50
2019-06-07T12:19:47.763Z,28.30
2019-06-07T12:22:16.347Z,28.80
2019-06-07T12:24:44.864Z,28.80
2019-06-07T12:27:14.600Z,28.50
2019-06-07T12:29:41.994Z,28.90
2019-06-07T12:32:11.212Z,29.60
2019-06-07T12:34:39.264Z,30.10
2019-06-07T12:37:07.862Z,30.10
2019-06-07T12:39:36.406Z,30.20
2019-06-07T12:42:05.017Z,29.40
2019-06-07T12:44:33.583Z,29.50
2019-06-07T12:47:02.127Z,29.70
2019-06-07T12:49:30.709Z,29.20
2019-06-07T12:51:59.214Z,29.20
2019-06-07T12:54:27.973Z,28.90
2019-06-07T12:56:56.499Z,28.50
2019-06-07T12:59:25.066Z,28.50
2019-06-07T13:01:53.578Z,28.60
2019-06-07T13:04:22.647Z,28.10
2019-06-07T13:06:51.153Z,28.00
2019-06-07T13:09:19.946Z,27.70
2019-06-07T13:11:48.302Z,27.50
2019-06-07T13:14:17.780Z,27.80
2019-06-07T13:16:45.402Z,27.90
2019-06-07T13:19:13.937Z,27.90
2019-06-07T13:21:42.473Z,28.40
2019-06-07T13:24:11.110Z,28.70
2019-06-07T13:26:39.834Z,28.70
2019-06-07T13:29:08.518Z,28.80
2019-06-07T13:31:37.063Z,28.90
2019-06-07T13:34:05.586Z,28.70
2019-06-07T13:36:34.255Z,28.20
2019-06-07T13:39:02.839Z,28.10
2019-06-07T13:41:41.810Z,27.90
2019-06-07T13:43:59.923Z,27.80
2019-06-07T13:46:28.455Z,28.10
2019-06-07T13:48:57.068Z,28.20
2019-06-07T13:51:26.945Z,28.20
2019-06-07T13:53:54.180Z,28.00
2019-06-07T13:56:23.958Z,27.80
2019-06-07T13:58:51.931Z,27.90
2019-06-07T14:01:20.492Z,27.90
2019-06-07T14:03:49.005Z,28.20
2019-06-07T14:06:18.820Z,28.50
2019-06-07T14:08:46.215Z,28.70
2019-06-07T14:11:14.934Z,28.80
2019-06-07T14:13:43.464Z,28.40
2019-06-07T14:16:12.035Z,27.80
2019-06-07T14:18:40.627Z,27.20
2019-06-07T14:21:09.338Z,27.00
2019-06-07T14:23:47.996Z,27.00
2019-06-07T14:26:06.486Z,26.80
2019-06-07T14:28:35.091Z,27.00
2019-06-07T14:31:03.643Z,26.80
2019-06-07T14:33:33.690Z,26.70
2019-06-07T14:36:00.927Z,26.90
2019-06-07T14:38:33.363Z,27.10
2019-06-07T14:40:58.238Z,27.20
2019-06-07T14:43:27.609Z,27.20
2019-06-07T14:45:55.506Z,27.00
2019-06-07T14:48:24.011Z,27.20
2019-06-07T14:50:52.539Z,27.60
2019-06-07T14:53:21.308Z,27.70
2019-06-07T14:55:49.840Z,27.60
2019-06-07T14:58:18.951Z,27.70
2019-06-07T15:00:47.700Z,27.80
2019-06-07T15:03:16.264Z,27.70
2019-06-07T15:05:44.811Z,27.50
2019-06-07T15:08:13.495Z,27.30
2019-06-07T15:10:42.063Z,27.20
2019-06-07T15:13:10.624Z,27.00
2019-06-07T15:15:39.228Z,27.10
2019-06-07T15:18:07.778Z,26.80
2019-06-07T15:20:36.459Z,26.80
2019-06-07T15:23:04.869Z,26.80
2019-06-07T15:25:33.630Z,26.60
2019-06-07T15:28:02.138Z,26.50
2019-06-07T15:30:31.620Z,26.70
2019-06-07T15:32:59.952Z,26.80
2019-06-07T15:35:28.115Z,26.80
2019-06-07T15:37:56.369Z,26.80
2019-06-07T15:40:25.126Z,26.70
2019-06-07T15:42:53.634Z,26.60
2019-06-07T15:45:22.505Z,26.60
2019-06-07T15:47:51.059Z,26.50
2019-06-07T15:50:19.687Z,26.40
2019-06-07T15:52:48.241Z,26.20
2019-06-07T15:55:16.882Z,26.20
2019-06-07T15:57:45.390Z,26.20
2019-06-07T16:00:14.264Z,26.30
2019-06-07T16:02:42.835Z,26.30
2019-06-07T16:05:11.474Z,26.30
2019-06-07T16:07:40.467Z,26.30
2019-06-07T16:10:08.775Z,26.20
2019-06-07T16:12:38.676Z,26.40
2019-06-07T16:15:07.064Z,26.40
2019-06-07T16:17:37.175Z,26.40
2019-06-07T16:20:05.256Z,26.30
2019-06-07T16:22:33.790Z,26.10
2019-06-07T16:25:02.392Z,26.00
2019-06-07T16:27:30.967Z,26.00
2019-06-07T16:29:59.502Z,26.00
2019-06-07T16:32:28.042Z,26.10
2019-06-07T16:34:56.603Z,26.10
2019-06-07T16:37:25.145Z,26.00
2019-06-07T16:39:53.929Z,26.00
2019-06-07T16:42:22.486Z,26.00
2019-06-07T16:44:51.266Z,26.00
2019-06-07T16:47:19.955Z,26.10
2019-06-07T16:49:49.228Z,26.00
2019-06-07T16:52:17.202Z,25.90
2019-06-07T16:54:45.925Z,26.00
2019-06-07T16:57:14.415Z,26.10
2019-06-07T16:59:46.770Z,26.30
2019-06-07T17:02:11.719Z,26.40
2019-06-07T17:04:41.501Z,26.50
2019-06-07T17:07:08.824Z,26.50
2019-06-07T17:09:38.157Z,26.40
2019-06-07T17:12:05.925Z,26.30
2019-06-07T17:14:34.475Z,26.20
2019-06-07T17:17:02.999Z,26.10
2019-06-07T17:19:31.515Z,26.10
2019-06-07T17:22:00.045Z,26.10
2019-06-07T17:24:28.740Z,26.60
2019-06-07T17:26:57.277Z,26.80
2019-06-07T17:29:25.792Z,26.50
2019-06-07T17:31:54.299Z,26.30
2019-06-07T17:34:22.857Z,26.10
2019-06-07T17:36:51.363Z,25.90
2019-06-07T17:39:19.890Z,25.60
2019-06-07T17:42:00.027Z,25.40
2019-06-07T17:44:17.152Z,25.30
2019-06-07T17:46:45.669Z,25.20
2019-06-07T17:49:14.185Z,25.00
2019-06-07T17:51:44.115Z,24.70
2019-06-07T17:54:11.442Z,24.70
2019-06-07T17:56:39.976Z,24.70
2019-06-07T17:59:08.505Z,24.70
2019-06-07T18:01:41.600Z,24.50
2019-06-07T18:04:06.488Z,24.50
2019-06-07T18:06:35.431Z,24.40
2019-06-07T18:09:04.716Z,24.20
2019-06-07T18:11:33.315Z,23.90
2019-06-07T18:14:10.008Z,23.80
2019-06-07T18:16:30.514Z,23.70
2019-06-07T18:18:59.167Z,23.50
2019-06-07T18:21:27.681Z,23.50
2019-06-07T18:23:56.265Z,23.30
2019-06-07T18:26:24.820Z,23.30
2019-06-07T18:28:54.610Z,23.30
2019-06-07T18:31:21.930Z,23.30
2019-06-07T18:33:50.945Z,23.30
2019-06-07T18:36:19.138Z,23.20
2019-06-07T18:38:48.956Z,23.10
2019-06-07T18:41:16.463Z,23.10
2019-06-07T18:43:44.979Z,23.00
2019-06-07T18:46:13.527Z,22.70
2019-06-07T18:48:42.045Z,22.60
2019-06-07T18:51:22.573Z,22.50
2019-06-07T18:53:51.650Z,22.50
2019-06-07T18:56:19.827Z,22.30
2019-06-07T18:58:49.121Z,22.20
2019-06-07T19:01:23.203Z,22.00
2019-06-07T19:03:52.094Z,21.90
2019-06-07T19:06:20.983Z,21.80
2019-06-07T19:08:53.120Z,21.80
2019-06-07T19:11:18.115Z,21.60
2019-06-07T19:13:46.847Z,21.40
2019-06-07T19:16:15.560Z,21.20
2019-06-07T19:18:44.091Z,21.20
2019-06-07T19:21:12.899Z,21.10
2019-06-07T19:23:41.637Z,21.00
2019-06-07T19:26:10.172Z,20.90
2019-06-07T19:28:38.683Z,20.80
2019-06-07T19:31:07.211Z,20.70
2019-06-07T19:33:48.463Z,20.50
2019-06-07T19:36:04.716Z,20.50
2019-06-07T19:38:33.390Z,20.50
2019-06-07T19:41:17.609Z,20.40
2019-06-07T19:43:30.643Z,20.30
2019-06-07T19:46:00.296Z,20.30
2019-06-07T19:48:27.753Z,20.20
2019-06-07T19:50:56.849Z,20.10
2019-06-07T19:53:24.995Z,20.10
2019-06-07T19:55:53.506Z,20.10
2019-06-07T19:58:22.293Z,19.90
2019-06-07T20:00:50.943Z,19.90
2019-06-07T20:03:19.479Z,19.90
2019-06-07T20:05:48.015Z,19.80
2019-06-07T20:08:17.251Z,19.70
2019-06-07T20:10:45.802Z,19.70
2019-06-07T20:13:14.371Z,19.50
2019-06-07T20:15:42.918Z,19.40
2019-06-07T20:18:11.776Z,19.30
2019-06-07T20:20:40.310Z,19.20
2019-06-07T20:23:09.341Z,19.20
2019-06-07T20:25:37.530Z,19.10
2019-06-07T20:28:06.111Z,19.10
2019-06-07T20:30:34.892Z,19.00
2019-06-07T20:33:03.955Z,18.90
2019-06-07T20:35:32.114Z,18.80
2019-06-07T20:38:01.148Z,18.80
2019-06-07T20:40:29.615Z,18.70
2019-06-07T20:42:59.349Z,18.80
2019-06-07T20:45:33.481Z,18.70
2019-06-07T20:47:55.583Z,18.70
2019-06-07T20:50:24.125Z,18.70
2019-06-07T20:52:52.675Z,18.70
2019-06-07T20:55:21.225Z,18.70
2019-06-07T20:57:49.794Z,18.70
2019-06-07T21:00:22.169Z,18.60
2019-06-07T21:02:47.123Z,18.60
2019-06-07T21:05:15.882Z,18.40
2019-06-07T21:07:44.394Z,18.40
2019-06-07T21:10:13.824Z,18.40
2019-06-07T21:12:42.569Z,18.40
2019-06-07T21:15:14.296Z,18.40
2019-06-07T21:17:40.284Z,18.30
2019-06-07T21:20:13.550Z,18.20
2019-06-07T21:22:37.104Z,18.10
2019-06-07T21:25:07.239Z,18.10
2019-06-07T21:27:34.615Z,18.00
2019-06-07T21:30:03.491Z,18.00
2019-06-07T21:32:31.861Z,18.00
2019-06-07T21:35:01.778Z,18.00
2019-06-07T21:37:29.080Z,18.00
2019-06-07T21:39:57.586Z,17.90
2019-06-07T21:42:26.094Z,17.90
2019-06-07T21:44:54.600Z,17.90
2019-06-07T21:47:23.131Z,17.80
2019-06-07T21:49:51.661Z,17.70
2019-06-07T21:52:20.266Z,17.70
2019-06-07T21:54:48.810Z,17.60
2019-06-07T21:57:17.343Z,17.60
2019-06-07T21:59:45.899Z,17.50
2019-06-07T22:02:14.736Z,17.50
2019-06-07T22:04:43.319Z,17.40
2019-06-07T22:07:11.842Z,17.30
2019-06-07T22:09:40.378Z,17.20
2019-06-07T22:12:10.132Z,17.20
2019-06-07T22:14:38.185Z,17.20
2019-06-07T22:17:08.163Z,17.10
2019-06-07T22:19:35.607Z,17.10
2019-06-07T22:22:05.217Z,17.10
2019-06-07T22:24:32.818Z,17.00
2019-06-07T22:27:01.336Z,16.90
2019-06-07T22:29:29.865Z,16.90
2019-06-07T22:31:58.401Z,16.80
2019-06-07T22:34:26.930Z,16.80
2019-06-07T22:36:55.450Z,16.80
2019-06-07T22:39:24.005Z,16.70
2019-06-07T22:41:52.575Z,16.70
2019-06-07T22:44:21.085Z,16.70
2019-06-07T22:46:49.771Z,16.80
2019-06-07T22:49:19.523Z,16.80
2019-06-07T22:51:46.855Z,16.80
2019-06-07T22:54:16.097Z,16.80
2019-06-07T22:56:48.344Z,16.80
2019-06-07T22:59:18.831Z,16.80
2019-06-07T23:01:45.520Z,16.70
2019-06-07T23:04:14.576Z,16.70
2019-06-07T23:06:42.584Z,16.70
2019-06-07T23:09:11.116Z,16.70
2019-06-07T23:11:39.642Z,16.60
2019-06-07T23:14:09.212Z,16.60
2019-06-07T23:16:54.011Z,16.50
2019-06-07T23:19:05.742Z,16.50
2019-06-07T23:21:34.270Z,16.50
2019-06-07T23:24:02.823Z,16.50
2019-06-07T23:26:31.391Z,16.50
2019-06-07T23:28:59.975Z,16.50
2019-06-07T23:31:28.517Z,16.40
2019-06-07T23:33:57.106Z,16.40
2019-06-07T23:36:25.663Z,16.40
2019-06-07T23:38:54.371Z,16.40
2019-06-07T23:41:22.877Z,16.30
2019-06-07T23:43:51.506Z,16.30
2019-06-07T23:46:20.024Z,16.30
2019-06-07T23:48:48.554Z,16.40
2019-06-07T23:51:17.700Z,16.30
2019-06-07T23:53:45.710Z,16.30
2019-06-07T23:56:14.255Z,16.30
2019-06-07T23:58:42.764Z,16.30
